createdAt,value
2018-12-20T00:01:32.047Z,90.00
2018-12-20T00:04:00.324Z,86.40
2018-12-20T00:06:29.872Z,96.67
2018-12-20T00:08:58.781Z,91.32
2018-12-20T00:11:28.134Z,104.83
2018-12-20T00:13:57.505Z,241.50
2018-12-20T00:16:26.760Z,92.00
2018-12-20T00:18:55.538Z,87.85
2018-12-20T00:21:24.947Z,93.90
2018-12-20T00:23:53.446Z,93.15
2018-12-20T00:26:22.362Z,106.55
2018-12-20T00:28:50.590Z,104.43
2018-12-20T00:31:20.062Z,103.83
2018-12-20T00:33:48.061Z,107.43
2018-12-20T00:36:16.382Z,95.65
2018-12-20T00:38:45.038Z,105.83
2018-12-20T00:41:16.152Z,98.55
2018-12-20T00:43:44.482Z,109.70
2018-12-20T00:46:12.570Z,115.00
2018-12-20T00:48:42.482Z,105.92
2018-12-20T00:51:11.896Z,103.30
2018-12-20T00:53:41.418Z,100.42
2018-12-20T00:56:10.851Z,118.60
2018-12-20T00:58:39.221Z,110.35
2018-12-20T01:01:08.569Z,114.77
2018-12-20T01:03:37.637Z,122.75
2018-12-20T01:06:07.150Z,103.72
2018-12-20T01:08:35.952Z,116.88
2018-12-20T01:11:07.281Z,114.17
2018-12-20T01:13:35.757Z,119.77
2018-12-20T01:16:05.308Z,129.40
2018-12-20T01:18:33.513Z,118.87
2018-12-20T01:21:02.437Z,118.13
2018-12-20T01:23:31.562Z,124.30
2018-12-20T01:25:59.943Z,123.72
2018-12-20T01:28:29.172Z,126.95
2018-12-20T01:30:58.595Z,137.92
2018-12-20T01:33:27.922Z,140.73
2018-12-20T01:35:58.276Z,133.87
2018-12-20T01:38:27.036Z,130.30
2018-12-20T01:40:55.753Z,133.80
2018-12-20T01:43:24.656Z,145.80
2018-12-20T01:45:52.815Z,130.12
2018-12-20T01:48:21.428Z,118.75
2018-12-20T01:50:50.320Z,109.30
2018-12-20T01:53:18.609Z,126.65
2018-12-20T01:55:47.903Z,132.32
2018-12-20T01:58:16.173Z,131.18
2018-12-20T02:00:45.555Z,141.88
2018-12-20T02:03:14.536Z,133.03
2018-12-20T02:05:42.701Z,124.07
2018-12-20T02:08:12.733Z,133.03
2018-12-20T02:10:42.178Z,127.00
2018-12-20T02:13:11.811Z,129.18
2018-12-20T02:15:40.062Z,120.80
2018-12-20T02:18:08.977Z,118.62
2018-12-20T02:20:38.491Z,122.53
2018-12-20T02:23:13.024Z,140.35
2018-12-20T02:25:41.827Z,129.72
2018-12-20T02:28:10.832Z,137.52
2018-12-20T02:30:39.907Z,144.47
2018-12-20T02:33:08.292Z,136.88
2018-12-20T02:35:36.511Z,140.88
2018-12-20T02:38:05.311Z,139.35
2018-12-20T02:40:33.567Z,153.87
2018-12-20T02:43:02.403Z,131.00
2018-12-20T02:45:31.462Z,144.45
2018-12-20T02:48:00.243Z,139.20
2018-12-20T02:50:28.993Z,136.82
2018-12-20T02:52:58.833Z,117.77
2018-12-20T02:55:27.114Z,114.32
2018-12-20T02:57:55.601Z,125.40
2018-12-20T03:00:23.753Z,128.20
2018-12-20T03:02:52.329Z,124.72
2018-12-20T03:05:20.398Z,119.80
2018-12-20T03:07:49.272Z,122.78
2018-12-20T03:10:17.536Z,136.75
2018-12-20T03:12:45.500Z,126.00
2018-12-20T03:15:19.858Z,120.15
2018-12-20T03:17:44.982Z,118.15
2018-12-20T03:20:13.153Z,131.65
2018-12-20T03:22:42.653Z,118.17
2018-12-20T03:25:10.799Z,113.30
2018-12-20T03:27:39.109Z,113.32
2018-12-20T03:30:08.307Z,117.72
2018-12-20T03:32:38.027Z,114.90
2018-12-20T03:35:07.338Z,105.90
2018-12-20T03:37:36.628Z,108.55
2018-12-20T03:40:05.758Z,107.00
2018-12-20T03:42:34.506Z,113.68
2018-12-20T03:45:02.979Z,111.37
2018-12-20T03:47:31.904Z,117.30
2018-12-20T03:50:00.260Z,113.87
2018-12-20T03:52:28.967Z,111.30
2018-12-20T03:54:58.397Z,106.12
2018-12-20T03:57:27.748Z,92.70
2018-12-20T03:59:56.567Z,105.90
2018-12-20T04:02:25.046Z,116.03
2018-12-20T04:04:53.799Z,112.42
2018-12-20T04:07:23.051Z,105.58
2018-12-20T04:09:52.562Z,104.80
2018-12-20T04:12:21.316Z,99.15
2018-12-20T04:14:50.777Z,113.30
2018-12-20T04:17:20.317Z,114.45
2018-12-20T04:19:48.572Z,117.30
2018-12-20T04:22:17.905Z,105.93
2018-12-20T04:24:46.340Z,115.08
2018-12-20T04:27:14.310Z,111.75
2018-12-20T04:29:42.491Z,93.77
2018-12-20T04:32:11.348Z,99.13
2018-12-20T04:34:41.264Z,106.87
2018-12-20T04:37:09.686Z,108.00
2018-12-20T04:39:38.346Z,109.17
2018-12-20T04:42:06.749Z,113.03
2018-12-20T04:44:36.934Z,96.73
2018-12-20T04:47:05.002Z,124.90
2018-12-20T04:49:34.458Z,127.30
2018-12-20T04:52:02.762Z,109.60
2018-12-20T04:54:32.207Z,96.95
2018-12-20T04:57:00.585Z,101.40
2018-12-20T04:59:29.634Z,99.10
2018-12-20T05:01:58.551Z,116.30
2018-12-20T05:04:27.702Z,94.13
2018-12-20T05:06:56.199Z,104.38
2018-12-20T05:09:24.859Z,97.10
2018-12-20T05:11:54.683Z,90.93
2018-12-20T05:14:22.622Z,99.80
2018-12-20T05:16:51.777Z,109.03
2018-12-20T05:19:20.574Z,90.60
2018-12-20T05:21:50.001Z,98.87
2018-12-20T05:24:18.262Z,90.50
2018-12-20T05:26:46.433Z,89.63
2018-12-20T05:29:15.961Z,101.07
2018-12-20T05:31:44.863Z,99.87
2018-12-20T05:34:14.754Z,100.47
2018-12-20T05:36:43.618Z,101.70
2018-12-20T05:39:12.213Z,101.50
2018-12-20T05:41:40.351Z,100.53
2018-12-20T05:44:09.426Z,107.43
2018-12-20T05:46:38.676Z,106.63
2018-12-20T05:49:09.181Z,102.97
2018-12-20T05:51:39.159Z,91.90
2018-12-20T05:54:08.482Z,104.47
2018-12-20T05:56:38.609Z,89.97
2018-12-20T05:59:07.795Z,96.20
2018-12-20T06:01:37.106Z,83.77
2018-12-20T06:04:05.529Z,97.10
2018-12-20T06:06:33.785Z,97.53
2018-12-20T06:09:02.832Z,168.60
2018-12-20T06:11:31.833Z,145.12
2018-12-20T06:14:00.106Z,117.30
2018-12-20T06:16:28.195Z,129.53
2018-12-20T06:18:57.478Z,110.70
2018-12-20T06:21:25.638Z,108.90
2018-12-20T06:23:54.588Z,110.23
2018-12-20T06:26:22.728Z,123.20
2018-12-20T06:28:50.945Z,107.07
2018-12-20T06:31:19.196Z,98.77
2018-12-20T06:33:47.893Z,107.07
2018-12-20T06:36:15.964Z,119.13
2018-12-20T06:38:43.957Z,101.47
2018-12-20T06:41:12.064Z,90.77
2018-12-20T06:43:40.676Z,99.10
2018-12-20T06:46:09.019Z,99.87
2018-12-20T06:48:37.622Z,109.47
2018-12-20T06:51:05.568Z,108.97
2018-12-20T06:53:35.054Z,103.33
2018-12-20T06:56:04.587Z,115.20
2018-12-20T06:58:33.799Z,122.00
2018-12-20T07:01:02.786Z,119.97
2018-12-20T07:03:31.790Z,116.03
2018-12-20T07:06:00.851Z,102.27
2018-12-20T07:08:29.502Z,110.50
2018-12-20T07:11:00.123Z,114.67
2018-12-20T07:13:28.790Z,145.27
2018-12-20T07:15:56.945Z,107.60
2018-12-20T07:18:26.603Z,103.57
2018-12-20T07:20:55.901Z,113.77
2018-12-20T07:23:24.027Z,117.07
2018-12-20T07:25:53.251Z,105.77
2018-12-20T07:28:22.042Z,98.43
2018-12-20T07:30:52.491Z,106.33
2018-12-20T07:33:21.015Z,110.00
2018-12-20T07:35:49.797Z,105.17
2018-12-20T07:38:19.185Z,118.97
2018-12-20T07:40:49.241Z,124.13
2018-12-20T07:43:18.541Z,113.97
2018-12-20T07:45:47.629Z,115.33
2018-12-20T07:48:17.023Z,131.70
2018-12-20T07:50:45.942Z,103.77
2018-12-20T07:53:14.949Z,109.23
2018-12-20T07:55:44.680Z,121.30
2018-12-20T07:58:13.775Z,117.47
2018-12-20T08:00:42.463Z,103.50
2018-12-20T08:03:11.539Z,111.53
2018-12-20T08:05:40.855Z,106.77
2018-12-20T08:08:11.457Z,111.80
2018-12-20T08:10:41.102Z,115.43
2018-12-20T08:13:10.039Z,105.20
2018-12-20T08:15:38.679Z,112.47
2018-12-20T08:18:10.545Z,119.97
2018-12-20T08:20:40.138Z,109.97
2018-12-20T08:23:09.330Z,270.27
2018-12-20T08:25:38.083Z,128.57
2018-12-20T08:28:08.409Z,156.27
2018-12-20T08:30:37.628Z,123.13
2018-12-20T08:33:08.589Z,118.67
2018-12-20T08:35:39.040Z,119.63
2018-12-20T08:38:07.785Z,124.73
2018-12-20T08:40:36.759Z,113.23
2018-12-20T08:43:06.475Z,99.60
2018-12-20T08:45:34.542Z,110.53
2018-12-20T08:48:04.397Z,124.40
2018-12-20T08:50:40.049Z,113.87
2018-12-20T08:53:10.026Z,104.57
2018-12-20T08:55:39.380Z,110.30
2018-12-20T08:58:08.728Z,106.67
2018-12-20T09:00:38.464Z,113.57
2018-12-20T09:03:08.172Z,111.60
2018-12-20T09:05:37.839Z,102.07
2018-12-20T09:08:06.621Z,100.57
2018-12-20T09:10:34.663Z,137.90
2018-12-20T09:13:09.547Z,104.40
2018-12-20T09:15:36.723Z,97.20
2018-12-20T09:18:06.907Z,105.40
2018-12-20T09:20:35.129Z,107.57
2018-12-20T09:23:05.436Z,103.97
2018-12-20T09:25:35.063Z,108.73
2018-12-20T09:28:09.987Z,115.67
2018-12-20T09:30:40.613Z,114.90
2018-12-20T09:33:10.130Z,108.03
2018-12-20T09:35:47.814Z,104.80
2018-12-20T09:38:16.901Z,118.53
2018-12-20T09:40:45.745Z,110.90
2018-12-20T09:43:15.887Z,99.33
2018-12-20T09:45:45.709Z,101.77
2018-12-20T09:48:14.265Z,104.60
2018-12-20T09:50:46.894Z,89.17
2018-12-20T09:53:17.733Z,105.03
2018-12-20T09:55:47.491Z,105.63
2018-12-20T09:58:17.093Z,102.53
2018-12-20T10:00:46.763Z,94.83
2018-12-20T10:03:15.337Z,104.93
2018-12-20T10:05:43.396Z,110.67
2018-12-20T10:08:12.270Z,101.50
2018-12-20T10:10:41.810Z,107.03
2018-12-20T10:13:10.897Z,115.23
2018-12-20T10:15:43.666Z,99.10
2018-12-20T10:18:13.908Z,102.03
2018-12-20T10:20:46.485Z,112.33
2018-12-20T10:23:19.161Z,112.27
2018-12-20T10:25:49.286Z,103.60
2018-12-20T10:28:19.730Z,100.17
2018-12-20T10:30:50.845Z,108.03
2018-12-20T10:33:26.296Z,102.33
2018-12-20T10:36:03.786Z,104.47
2018-12-20T10:38:33.820Z,95.90
2018-12-20T10:41:07.113Z,92.50
2018-12-20T10:43:35.158Z,94.27
2018-12-20T10:46:08.303Z,100.57
2018-12-20T10:48:40.923Z,94.50
2018-12-20T10:51:11.009Z,98.23
2018-12-20T10:53:40.378Z,97.23
2018-12-20T10:56:09.104Z,102.73
2018-12-20T10:58:39.323Z,95.27
2018-12-20T11:01:14.587Z,98.93
2018-12-20T11:03:47.081Z,96.40
2018-12-20T11:06:22.223Z,103.23
2018-12-20T11:10:00.310Z,94.87
2018-12-20T11:12:35.210Z,86.33
2018-12-20T11:15:08.446Z,97.87
2018-12-20T11:17:38.780Z,95.33
2018-12-20T11:20:23.502Z,93.20
2018-12-20T11:22:52.542Z,111.53
2018-12-20T11:25:22.361Z,92.13
2018-12-20T11:27:53.067Z,84.63
2018-12-20T11:30:27.928Z,108.67
2018-12-20T11:32:59.583Z,91.37
2018-12-20T11:35:29.585Z,81.33
2018-12-20T11:37:57.869Z,85.57
2018-12-20T11:40:27.836Z,83.37
2018-12-20T11:42:59.431Z,94.20
2018-12-20T11:45:30.113Z,92.50
2018-12-20T11:48:06.433Z,88.00
2018-12-20T11:50:40.136Z,82.90
2018-12-20T11:53:09.242Z,96.63
2018-12-20T11:55:39.216Z,95.00
2018-12-20T11:58:10.291Z,96.50
2018-12-20T12:03:17.684Z,101.87
2018-12-20T12:05:45.726Z,108.30
2018-12-20T12:08:16.018Z,97.67
2018-12-20T12:10:45.485Z,107.33
2018-12-20T12:13:15.402Z,108.87
2018-12-20T12:15:46.641Z,114.90
2018-12-20T12:18:14.934Z,93.00
2018-12-20T12:20:44.856Z,109.30
2018-12-20T12:23:14.616Z,89.80
2018-12-20T12:25:43.546Z,97.47
2018-12-20T12:28:12.481Z,92.90
2018-12-20T12:30:40.714Z,102.63
2018-12-20T12:33:08.880Z,97.93
2018-12-20T12:41:37.513Z,102.23
2018-12-20T12:44:05.033Z,98.97
2018-12-20T12:46:32.694Z,98.07
2018-12-20T12:49:00.230Z,101.13
2018-12-20T12:51:27.764Z,114.23
2018-12-20T12:53:55.350Z,100.33
2018-12-20T12:56:22.870Z,97.57
2018-12-20T12:58:50.536Z,102.77
2018-12-20T13:01:18.102Z,104.57
2018-12-20T13:03:45.614Z,101.33
2018-12-20T13:06:13.133Z,99.20
2018-12-20T13:08:40.650Z,100.93
2018-12-20T13:11:08.185Z,102.70
2018-12-20T13:13:35.713Z,108.30
2018-12-20T13:16:03.366Z,123.33
2018-12-20T13:18:30.885Z,100.07
2018-12-20T13:20:58.397Z,104.97
2018-12-20T13:23:25.922Z,106.33
2018-12-20T13:25:53.600Z,104.83
2018-12-20T13:28:21.219Z,107.67
2018-12-20T13:30:48.806Z,107.37
2018-12-20T13:33:16.326Z,103.43
2018-12-20T13:35:43.858Z,93.50
2018-12-20T13:38:11.369Z,98.20
2018-12-20T13:40:39.010Z,98.33
2018-12-20T13:43:06.546Z,98.50
2018-12-20T13:45:34.072Z,107.13
2018-12-20T13:48:01.594Z,102.60
2018-12-20T13:50:29.116Z,109.03
2018-12-20T13:52:56.649Z,92.50
2018-12-20T13:55:24.162Z,144.53
2018-12-20T13:57:51.677Z,108.40
2018-12-20T14:00:19.397Z,149.23
2018-12-20T14:02:46.916Z,122.47
2018-12-20T14:05:14.349Z,104.70
2018-12-20T14:07:41.876Z,133.23
2018-12-20T14:10:09.577Z,91.80
2018-12-20T14:12:37.170Z,100.23
2018-12-20T14:15:06.810Z,103.40
2018-12-20T14:17:34.335Z,102.60
2018-12-20T14:20:01.860Z,101.67
2018-12-20T14:22:29.394Z,106.43
2018-12-20T14:24:56.922Z,107.47
2018-12-20T14:27:24.568Z,103.13
2018-12-20T14:29:52.101Z,106.83
2018-12-20T14:32:19.631Z,106.37
2018-12-20T14:34:47.132Z,108.37
2018-12-20T14:37:14.772Z,101.00
2018-12-20T14:39:42.293Z,104.30
2018-12-20T14:42:09.802Z,107.03
2018-12-20T14:44:37.358Z,142.27
2018-12-20T14:47:04.882Z,118.03
2018-12-20T14:49:32.456Z,120.03
2018-12-20T14:52:00.106Z,121.27
2018-12-20T14:54:27.650Z,124.33
2018-12-20T14:56:55.175Z,110.90
2018-12-20T14:59:22.698Z,113.63
2018-12-20T15:01:50.222Z,114.17
2018-12-20T15:04:17.753Z,121.00
2018-12-20T15:06:45.174Z,109.53
2018-12-20T15:09:12.713Z,106.53
2018-12-20T15:11:40.234Z,116.70
2018-12-20T15:14:07.756Z,127.03
2018-12-20T15:16:35.394Z,111.13
2018-12-20T15:19:03.089Z,111.57
2018-12-20T15:21:30.602Z,119.07
2018-12-20T15:23:58.159Z,114.17
2018-12-20T15:26:25.670Z,120.77
2018-12-20T15:28:53.205Z,103.30
2018-12-20T15:31:20.749Z,143.67
2018-12-20T15:33:48.267Z,142.97
2018-12-20T15:36:15.921Z,126.57
2018-12-20T15:38:43.562Z,118.80
2018-12-20T15:41:11.084Z,129.63
2018-12-20T15:43:38.593Z,118.20
2018-12-20T15:46:06.125Z,116.53
2018-12-20T15:48:33.646Z,121.60
2018-12-20T15:51:01.190Z,112.57
2018-12-20T15:53:28.713Z,131.57
2018-12-20T15:55:56.238Z,108.63
2018-12-20T15:58:23.786Z,116.97
2018-12-20T16:00:51.301Z,112.80
2018-12-20T16:03:18.835Z,108.90
2018-12-20T16:05:46.366Z,118.87
2018-12-20T16:08:13.871Z,116.53
2018-12-20T16:10:41.386Z,128.17
2018-12-20T16:13:09.032Z,135.77
2018-12-20T16:15:36.549Z,124.13
2018-12-20T16:18:04.092Z,143.37
2018-12-20T16:20:31.846Z,138.87
2018-12-20T16:22:59.481Z,187.27
2018-12-20T16:25:26.992Z,168.73
2018-12-20T16:27:54.537Z,146.87
2018-12-20T16:30:22.069Z,206.27
2018-12-20T16:32:49.613Z,186.18
2018-12-20T16:35:17.185Z,184.32
2018-12-20T16:37:44.710Z,214.05
2018-12-20T16:40:12.474Z,169.20
2018-12-20T16:42:39.986Z,163.17
2018-12-20T16:45:07.998Z,162.30
2018-12-20T16:47:35.513Z,156.57
2018-12-20T16:50:03.994Z,186.50
2018-12-20T16:52:31.519Z,158.03
2018-12-20T16:54:59.046Z,161.80
2018-12-20T16:57:26.598Z,157.40
2018-12-20T16:59:54.154Z,165.17
2018-12-20T17:02:21.726Z,165.37
2018-12-20T17:04:49.234Z,140.80
2018-12-20T17:07:16.753Z,192.83
2018-12-20T17:09:44.443Z,199.97
2018-12-20T17:12:11.954Z,146.00
2018-12-20T17:14:39.613Z,130.07
2018-12-20T17:17:07.185Z,116.40
2018-12-20T17:19:34.694Z,118.03
2018-12-20T17:22:02.366Z,109.53
2018-12-20T17:24:29.918Z,119.22
2018-12-20T17:26:57.467Z,110.63
2018-12-20T17:29:25.106Z,119.93
2018-12-20T17:31:52.641Z,119.23
2018-12-20T17:34:20.189Z,124.50
2018-12-20T17:36:47.732Z,138.63
2018-12-20T17:39:15.249Z,124.53
2018-12-20T17:41:42.694Z,130.17
2018-12-20T17:44:10.210Z,129.85
2018-12-20T17:46:37.731Z,116.67
2018-12-20T17:49:05.274Z,119.60
2018-12-20T17:51:32.949Z,119.60
2018-12-20T17:54:00.521Z,129.77
2018-12-20T17:56:28.046Z,137.63
2018-12-20T17:58:55.601Z,132.87
2018-12-20T18:01:23.273Z,124.78
2018-12-20T18:03:50.821Z,121.37
2018-12-20T18:06:18.481Z,125.62
2018-12-20T18:08:46.076Z,145.50
2018-12-20T18:11:13.493Z,125.67
2018-12-20T18:13:41.051Z,125.02
2018-12-20T18:16:08.618Z,136.60
2018-12-20T18:18:36.197Z,156.13
2018-12-20T18:21:03.717Z,139.17
2018-12-20T18:23:31.298Z,135.95
2018-12-20T18:25:58.821Z,132.87
2018-12-20T18:28:26.341Z,142.13
2018-12-20T18:30:53.849Z,129.93
2018-12-20T18:33:21.371Z,137.22
2018-12-20T18:35:48.887Z,130.35
2018-12-20T18:38:16.543Z,125.12
2018-12-20T18:40:44.068Z,135.95
2018-12-20T18:43:11.598Z,117.53
2018-12-20T18:45:39.090Z,129.42
2018-12-20T18:48:06.606Z,121.63
2018-12-20T18:50:34.197Z,133.20
2018-12-20T18:53:01.728Z,150.60
2018-12-20T18:55:29.479Z,135.50
2018-12-20T18:57:57.045Z,145.40
2018-12-20T19:00:24.581Z,153.35
2018-12-20T19:02:52.111Z,141.25
2018-12-20T19:05:19.802Z,159.43
2018-12-20T19:07:47.312Z,169.28
2018-12-20T19:10:14.850Z,176.68
2018-12-20T19:12:42.439Z,147.57
2018-12-20T19:15:10.005Z,190.07
2018-12-20T19:17:37.557Z,149.15
2018-12-20T19:20:15.831Z,137.55
2018-12-20T19:22:36.909Z,151.65
2018-12-20T19:25:05.230Z,152.35
2018-12-20T19:27:32.758Z,141.53
2018-12-20T19:30:00.278Z,160.40
2018-12-20T19:32:27.810Z,146.40
2018-12-20T19:34:55.326Z,176.05
2018-12-20T19:37:22.810Z,159.43
2018-12-20T19:39:54.901Z,157.67
2018-12-20T19:42:22.423Z,154.72
2018-12-20T19:44:49.957Z,144.47
2018-12-20T19:47:17.496Z,168.37
2018-12-20T19:49:45.138Z,157.53
2018-12-20T19:52:12.805Z,157.32
2018-12-20T19:54:47.766Z,167.55
2018-12-20T19:57:09.875Z,156.63
2018-12-20T19:59:38.802Z,137.05
2018-12-20T20:02:06.633Z,161.12
2018-12-20T20:04:34.062Z,127.58
2018-12-20T20:07:01.578Z,145.40
2018-12-20T20:09:29.105Z,143.05
2018-12-20T20:11:56.645Z,127.25
2018-12-20T20:14:24.298Z,147.25
2018-12-20T20:16:51.942Z,115.45
2018-12-20T20:19:19.374Z,141.73
2018-12-20T20:21:46.881Z,135.48
2018-12-20T20:24:14.462Z,155.20
2018-12-20T20:26:41.993Z,149.53
2018-12-20T20:29:09.682Z,174.73
2018-12-20T20:31:37.221Z,146.02
2018-12-20T20:34:04.753Z,150.07
2018-12-20T20:36:32.394Z,148.17
2018-12-20T20:39:02.083Z,145.57
2018-12-20T20:41:29.454Z,148.70
2018-12-20T20:43:56.997Z,149.70
2018-12-20T20:46:24.521Z,142.10
2018-12-20T20:48:52.034Z,149.70
2018-12-20T20:51:19.564Z,129.70
2018-12-20T20:53:47.072Z,148.87
2018-12-20T20:56:14.591Z,143.40
2018-12-20T20:58:42.101Z,149.07
2018-12-20T21:01:09.625Z,148.27
2018-12-20T21:03:37.136Z,141.00
2018-12-20T21:06:04.693Z,150.37
2018-12-20T21:08:32.213Z,145.03
2018-12-20T21:10:59.734Z,137.80
2018-12-20T21:13:27.254Z,133.93
2018-12-20T21:15:54.782Z,140.97
2018-12-20T21:18:22.331Z,147.27
2018-12-20T21:20:49.852Z,142.27
2018-12-20T21:23:17.362Z,148.00
2018-12-20T21:25:44.878Z,140.37
2018-12-20T21:28:12.406Z,152.23
2018-12-20T21:30:39.913Z,143.97
2018-12-20T21:33:07.438Z,147.83
2018-12-20T21:35:34.950Z,163.97
2018-12-20T21:38:02.714Z,154.80
2018-12-20T21:40:30.269Z,147.47
2018-12-20T21:42:57.782Z,155.20
2018-12-20T21:45:25.286Z,156.37
2018-12-20T21:47:52.798Z,142.33
2018-12-20T21:50:20.337Z,130.50
2018-12-20T21:52:47.863Z,143.23
2018-12-20T21:55:15.382Z,139.00
2018-12-20T21:57:44.791Z,144.10
2018-12-20T22:00:12.589Z,142.07
2018-12-20T22:02:40.106Z,159.90
2018-12-20T22:05:07.781Z,136.73
2018-12-20T22:07:35.313Z,142.20
2018-12-20T22:10:03.749Z,132.55
2018-12-20T22:12:31.271Z,137.17
2018-12-20T22:14:58.796Z,134.65
2018-12-20T22:17:26.327Z,155.45
2018-12-20T22:19:58.559Z,140.90
2018-12-20T22:22:23.417Z,133.60
2018-12-20T22:24:50.929Z,158.43
2018-12-20T22:27:18.467Z,141.32
2018-12-20T22:29:45.990Z,153.07
2018-12-20T22:32:13.731Z,148.43
2018-12-20T22:34:41.320Z,132.90
2018-12-20T22:37:08.746Z,141.03
2018-12-20T22:39:36.284Z,150.57
2018-12-20T22:42:03.853Z,139.70
2018-12-20T22:44:31.378Z,150.72
2018-12-20T22:46:58.898Z,137.18
2018-12-20T22:49:26.414Z,132.90
2018-12-20T22:51:53.945Z,170.97
2018-12-20T22:54:21.682Z,148.15
2018-12-20T22:56:49.231Z,160.85
2018-12-20T22:59:16.799Z,134.40
2018-12-20T23:01:44.330Z,155.15
2018-12-20T23:04:11.862Z,141.77
2018-12-20T23:06:39.385Z,149.72
2018-12-20T23:09:06.898Z,171.32
2018-12-20T23:11:34.423Z,149.45
2018-12-20T23:14:01.962Z,157.15
2018-12-20T23:16:29.499Z,168.20
2018-12-20T23:18:57.029Z,149.72
2018-12-20T23:21:24.537Z,153.20
2018-12-20T23:23:52.125Z,159.20
2018-12-20T23:26:19.703Z,152.25
2018-12-20T23:28:47.214Z,147.87
2018-12-20T23:31:14.852Z,156.28
2018-12-20T23:33:42.386Z,140.50
2018-12-20T23:36:09.906Z,152.07
2018-12-20T23:38:37.422Z,168.43
2018-12-20T23:41:04.973Z,135.95
2018-12-20T23:43:32.504Z,142.68
2018-12-20T23:46:00.140Z,131.67
2018-12-20T23:48:27.657Z,141.22
2018-12-20T23:50:55.173Z,142.00
2018-12-20T23:53:22.686Z,150.70
2018-12-20T23:55:50.202Z,139.32
2018-12-20T23:58:17.714Z,140.12
